createdAt,value
2022-10-19T00:01:23.155Z,7.65
2022-10-19T00:03:54.522Z,7.62
2022-10-19T00:06:26.489Z,7.59
2022-10-19T00:08:59.141Z,7.57
2022-10-19T00:11:28.097Z,7.55
2022-10-19T00:13:57.819Z,7.53
2022-10-19T00:16:29.885Z,7.51
2022-10-19T00:18:59.128Z,7.48
2022-10-19T00:21:27.676Z,7.45
2022-10-19T00:23:55.344Z,7.42
2022-10-19T00:26:22.937Z,7.39
2022-10-19T00:28:54.020Z,7.37
2022-10-19T00:31:21.442Z,7.34
2022-10-19T00:33:48.997Z,7.33
2022-10-19T00:36:24.990Z,7.32
2022-10-19T00:38:53.568Z,7.29
2022-10-19T00:41:24.448Z,7.28
2022-10-19T00:44:06.866Z,7.24
2022-10-19T00:46:39.667Z,7.20
2022-10-19T00:49:19.989Z,7.19
2022-10-19T00:51:53.704Z,7.18
2022-10-19T00:54:22.526Z,7.17
2022-10-19T00:56:53.364Z,7.17
2022-10-19T00:59:25.102Z,7.14
2022-10-19T01:01:53.297Z,7.08
2022-10-19T01:04:24.545Z,7.07
2022-10-19T01:06:54.126Z,7.07
2022-10-19T01:09:25.121Z,7.07
2022-10-19T01:12:23.414Z,7.08
2022-10-19T01:15:20.412Z,7.06
2022-10-19T01:17:58.255Z,7.04
2022-10-19T01:20:47.238Z,7.05
2022-10-19T01:23:34.687Z,7.02
2022-10-19T01:26:44.787Z,7.01
2022-10-19T01:29:49.907Z,6.99
2022-10-19T01:32:34.997Z,6.97
2022-10-19T01:35:28.608Z,6.95
2022-10-19T01:38:19.494Z,6.92
2022-10-19T01:41:11.256Z,6.88
2022-10-19T01:44:19.105Z,6.84
2022-10-19T01:47:06.085Z,6.81
2022-10-19T01:49:47.032Z,6.80
2022-10-19T01:52:20.728Z,6.78
2022-10-19T01:54:53.733Z,6.78
2022-10-19T01:57:32.479Z,6.76
2022-10-19T02:00:07.210Z,6.76
2022-10-19T02:02:46.634Z,6.74
2022-10-19T02:05:18.847Z,6.71
2022-10-19T02:07:55.879Z,6.71
2022-10-19T02:10:25.631Z,6.68
2022-10-19T02:12:56.385Z,6.68
2022-10-19T02:15:29.042Z,6.67
2022-10-19T02:18:00.403Z,6.63
2022-10-19T02:20:29.152Z,6.61
2022-10-19T02:22:56.795Z,6.60
2022-10-19T02:25:25.379Z,6.58
2022-10-19T02:27:53.215Z,6.56
2022-10-19T02:30:22.245Z,6.55
2022-10-19T02:32:51.030Z,6.54
2022-10-19T02:35:18.761Z,6.52
2022-10-19T02:37:46.441Z,6.52
2022-10-19T02:40:14.491Z,6.49
2022-10-19T02:42:56.736Z,6.48
2022-10-19T02:45:30.875Z,6.42
2022-10-19T02:48:09.701Z,6.41
2022-10-19T02:50:38.073Z,6.38
2022-10-19T02:53:05.538Z,6.36
2022-10-19T02:55:33.066Z,6.32
2022-10-19T02:58:00.449Z,6.29
2022-10-19T03:00:27.803Z,6.26
2022-10-19T03:02:55.188Z,6.23
2022-10-19T03:05:22.516Z,6.21
2022-10-19T03:07:50.028Z,6.20
2022-10-19T03:10:17.485Z,6.20
2022-10-19T03:12:44.812Z,6.19
2022-10-19T03:15:17.338Z,6.18
2022-10-19T03:17:45.148Z,6.16
2022-10-19T03:20:12.526Z,6.15
2022-10-19T03:22:39.952Z,6.15
2022-10-19T03:25:54.996Z,6.14
2022-10-19T03:28:33.238Z,6.09
2022-10-19T03:31:01.194Z,6.10
2022-10-19T03:33:29.049Z,6.09
2022-10-19T03:36:19.838Z,6.11
2022-10-19T03:38:53.478Z,6.10
2022-10-19T03:41:24.368Z,6.09
2022-10-19T03:43:51.903Z,6.10
2022-10-19T03:46:20.434Z,6.09
2022-10-19T03:48:48.331Z,6.09
2022-10-19T03:51:21.967Z,6.10
2022-10-19T03:53:54.971Z,6.09
2022-10-19T03:56:25.127Z,6.08
2022-10-19T03:58:55.158Z,6.07
2022-10-19T04:01:27.095Z,6.06
2022-10-19T04:03:58.605Z,6.05
2022-10-19T04:06:30.859Z,6.04
2022-10-19T04:08:59.342Z,6.04
2022-10-19T04:11:30.144Z,6.04
2022-10-19T04:13:59.297Z,6.01
2022-10-19T04:16:30.545Z,6.00
2022-10-19T04:18:58.651Z,5.99
2022-10-19T04:21:30.819Z,5.98
2022-10-19T04:24:09.004Z,5.96
2022-10-19T04:26:46.014Z,5.95
2022-10-19T04:29:14.792Z,5.93
2022-10-19T04:31:42.404Z,5.93
2022-10-19T04:34:09.761Z,5.92
2022-10-19T04:36:37.969Z,5.90
2022-10-19T04:39:07.009Z,5.88
2022-10-19T04:41:35.177Z,5.87
2022-10-19T04:44:06.570Z,5.87
2022-10-19T04:46:34.579Z,5.85
2022-10-19T04:49:04.132Z,5.85
2022-10-19T04:51:31.562Z,5.84
2022-10-19T04:53:59.833Z,5.84
2022-10-19T04:56:28.128Z,5.83
2022-10-19T04:58:57.556Z,5.81
2022-10-19T05:01:27.721Z,5.80
2022-10-19T05:04:00.988Z,5.77
2022-10-19T05:06:30.599Z,5.76
2022-10-19T05:08:58.709Z,5.73
2022-10-19T05:11:26.712Z,5.71
2022-10-19T05:13:54.349Z,5.69
2022-10-19T05:16:23.921Z,5.66
2022-10-19T05:18:59.701Z,5.64
2022-10-19T05:21:29.248Z,5.60
2022-10-19T05:23:57.916Z,5.57
2022-10-19T05:26:27.803Z,5.53
2022-10-19T05:29:01.373Z,5.52
2022-10-19T05:31:32.616Z,5.49
2022-10-19T05:34:01.125Z,5.44
2022-10-19T05:36:34.383Z,5.43
2022-10-19T05:39:13.201Z,5.40
2022-10-19T05:41:44.510Z,5.39
2022-10-19T05:44:20.941Z,5.40
2022-10-19T05:46:50.881Z,5.39
2022-10-19T05:49:21.541Z,5.39
2022-10-19T05:51:50.083Z,5.39
2022-10-19T05:54:18.300Z,5.38
2022-10-19T05:56:46.177Z,5.39
2022-10-19T05:59:18.200Z,5.39
2022-10-19T06:01:46.925Z,5.38
2022-10-19T06:04:15.016Z,5.38
2022-10-19T06:06:43.099Z,5.37
2022-10-19T06:09:10.975Z,5.37
2022-10-19T06:11:42.149Z,5.38
2022-10-19T06:14:15.112Z,5.38
2022-10-19T06:16:42.872Z,5.39
2022-10-19T06:19:10.202Z,5.38
2022-10-19T06:21:39.614Z,5.37
2022-10-19T06:24:11.817Z,5.38
2022-10-19T06:26:39.543Z,5.37
2022-10-19T06:29:07.604Z,5.38
2022-10-19T06:31:36.504Z,5.36
2022-10-19T06:34:04.986Z,5.38
2022-10-19T06:36:32.993Z,5.40
2022-10-19T06:39:01.946Z,5.42
2022-10-19T06:41:31.291Z,5.44
2022-10-19T06:44:12.701Z,5.46
2022-10-19T06:46:40.129Z,5.48
2022-10-19T06:49:07.477Z,5.51
2022-10-19T06:51:34.822Z,5.56
2022-10-19T06:54:03.037Z,5.62
2022-10-19T06:56:30.416Z,5.68
2022-10-19T06:58:58.273Z,5.73
2022-10-19T07:01:25.922Z,5.78
2022-10-19T07:03:54.026Z,5.85
2022-10-19T07:06:23.016Z,5.92
2022-10-19T07:08:50.519Z,5.99
2022-10-19T07:11:20.849Z,6.11
2022-10-19T07:13:48.264Z,6.19
2022-10-19T07:16:21.159Z,6.28
2022-10-19T07:18:52.123Z,6.37
2022-10-19T07:21:22.941Z,6.45
2022-10-19T07:23:50.631Z,6.54
2022-10-19T07:26:28.278Z,6.66
2022-10-19T07:28:57.373Z,6.74
2022-10-19T07:31:28.938Z,6.84
2022-10-19T07:34:00.089Z,6.92
2022-10-19T07:36:30.636Z,7.00
2022-10-19T07:38:58.143Z,7.09
2022-10-19T07:41:26.498Z,7.21
2022-10-19T07:43:54.439Z,7.32
2022-10-19T07:46:25.646Z,7.43
2022-10-19T07:48:53.778Z,7.55
2022-10-19T07:51:22.616Z,7.68
2022-10-19T07:53:50.099Z,7.78
2022-10-19T07:56:24.236Z,7.90
2022-10-19T07:58:55.164Z,8.03
2022-10-19T08:01:40.876Z,8.14
2022-10-19T08:06:55.693Z,8.37
2022-10-19T08:09:50.952Z,8.49
2022-10-19T08:12:14.798Z,8.60
2022-10-19T08:14:42.915Z,8.69
2022-10-19T08:17:16.725Z,8.81
2022-10-19T08:19:46.901Z,8.91
2022-10-19T08:22:15.161Z,9.01
2022-10-19T08:24:42.514Z,9.12
2022-10-19T08:27:09.885Z,9.22
2022-10-19T08:29:37.272Z,9.33
2022-10-19T08:32:04.957Z,9.42
2022-10-19T08:34:33.229Z,9.53
2022-10-19T08:37:10.180Z,9.65
2022-10-19T08:39:47.593Z,9.78
2022-10-19T08:42:25.391Z,9.90
2022-10-19T08:45:28.502Z,10.03
2022-10-19T08:48:37.986Z,10.19
2022-10-19T08:51:09.197Z,10.30
2022-10-19T08:53:45.436Z,10.42
2022-10-19T08:56:51.157Z,10.56
2022-10-19T08:59:42.037Z,10.67
2022-10-19T09:02:48.071Z,10.81
2022-10-19T09:05:38.005Z,10.95
2022-10-19T09:08:05.510Z,11.06
2022-10-19T09:10:40.124Z,11.15
2022-10-19T09:13:29.230Z,11.24
2022-10-19T09:16:05.211Z,11.34
2022-10-19T09:18:35.362Z,11.43
2022-10-19T09:21:33.378Z,11.54
2022-10-19T09:24:36.754Z,11.64
2022-10-19T09:27:05.980Z,11.74
2022-10-19T09:29:47.643Z,11.83
2022-10-19T09:32:24.298Z,11.93
2022-10-19T09:34:56.615Z,12.03
2022-10-19T09:37:26.619Z,12.15
2022-10-19T09:39:56.054Z,12.26
2022-10-19T09:42:33.620Z,12.36
2022-10-19T09:45:29.485Z,12.43
2022-10-19T09:48:04.579Z,12.46
2022-10-19T09:50:44.696Z,12.54
2022-10-19T09:53:21.287Z,12.62
2022-10-19T09:56:06.646Z,12.68
2022-10-19T09:58:35.714Z,12.74
2022-10-19T10:01:03.547Z,12.82
2022-10-19T10:03:40.433Z,12.89
2022-10-19T10:06:15.365Z,12.97
2022-10-19T10:08:58.962Z,13.02
2022-10-19T10:11:41.021Z,13.03
2022-10-19T10:14:28.624Z,13.05
2022-10-19T10:17:02.812Z,13.06
2022-10-19T10:19:33.680Z,13.05
2022-10-19T10:22:03.943Z,13.03
2022-10-19T10:24:33.915Z,13.04
2022-10-19T10:27:05.770Z,13.01
2022-10-19T10:29:35.959Z,12.99
2022-10-19T10:32:16.432Z,13.02
2022-10-19T10:34:58.382Z,13.05
2022-10-19T10:37:41.660Z,13.15
2022-10-19T10:40:31.155Z,13.25
2022-10-19T10:43:16.613Z,13.34
2022-10-19T10:45:52.944Z,13.42
2022-10-19T10:48:37.130Z,13.47
2022-10-19T10:51:20.676Z,13.50
2022-10-19T10:53:48.516Z,13.59
2022-10-19T10:56:28.088Z,13.66
2022-10-19T10:59:10.063Z,13.73
2022-10-19T11:01:49.204Z,13.87
2022-10-19T11:04:25.263Z,13.96
2022-10-19T11:07:04.936Z,13.99
2022-10-19T11:09:43.497Z,14.01
2022-10-19T11:12:19.112Z,14.06
2022-10-19T11:15:02.311Z,14.09
2022-10-19T11:17:37.507Z,14.12
2022-10-19T11:20:13.802Z,14.16
2022-10-19T11:22:56.043Z,14.21
2022-10-19T11:25:49.258Z,14.21
2022-10-19T11:29:24.562Z,14.18
2022-10-19T11:31:55.910Z,14.12
2022-10-19T11:34:49.781Z,14.14
2022-10-19T11:38:19.526Z,14.21
2022-10-19T11:41:22.843Z,14.33
2022-10-19T11:44:20.971Z,14.44
2022-10-19T11:47:00.514Z,14.49
2022-10-19T11:50:10.563Z,14.53
2022-10-19T11:53:09.671Z,14.58
2022-10-19T11:55:40.178Z,14.67
2022-10-19T11:58:34.454Z,14.82
2022-10-19T12:01:12.988Z,14.92
2022-10-19T12:03:58.765Z,14.96
2022-10-19T12:06:59.835Z,14.99
2022-10-19T12:10:08.893Z,15.01
2022-10-19T12:12:47.780Z,15.01
2022-10-19T12:15:38.094Z,15.12
2022-10-19T12:18:19.543Z,15.21
2022-10-19T12:20:53.392Z,15.24
2022-10-19T12:23:34.340Z,15.26
2022-10-19T12:26:08.584Z,15.25
2022-10-19T12:28:43.119Z,15.23
2022-10-19T12:31:12.358Z,15.28
2022-10-19T12:33:52.396Z,15.34
2022-10-19T12:36:40.405Z,15.35
2022-10-19T12:39:45.809Z,15.39
2022-10-19T12:42:29.147Z,15.45
2022-10-19T12:45:25.110Z,15.50
2022-10-19T12:48:18.864Z,15.53
2022-10-19T12:50:58.052Z,15.48
2022-10-19T12:53:32.240Z,15.49
2022-10-19T12:56:26.138Z,15.53
2022-10-19T12:59:01.416Z,15.56
2022-10-19T13:01:34.511Z,15.61
2022-10-19T13:04:21.281Z,15.65
2022-10-19T13:07:16.712Z,15.65
2022-10-19T13:09:47.847Z,15.61
2022-10-19T13:12:19.508Z,15.62
2022-10-19T13:14:55.684Z,15.63
2022-10-19T13:17:38.115Z,15.66
2022-10-19T13:20:14.706Z,15.67
2022-10-19T13:22:51.459Z,15.69
2022-10-19T13:25:33.559Z,15.70
2022-10-19T13:28:06.680Z,15.68
2022-10-19T13:30:38.099Z,15.66
2022-10-19T13:33:32.977Z,15.65
2022-10-19T13:36:00.305Z,15.64
2022-10-19T13:38:43.438Z,15.64
2022-10-19T13:41:27.448Z,15.60
2022-10-19T13:44:15.017Z,15.58
2022-10-19T13:47:07.420Z,15.54
2022-10-19T13:50:13.395Z,15.49
2022-10-19T13:53:18.071Z,15.42
2022-10-19T13:56:35.255Z,15.37
2022-10-19T13:59:39.632Z,15.30
2022-10-19T14:02:50.740Z,15.28
2022-10-19T14:06:06.021Z,15.21
2022-10-19T14:09:19.718Z,15.12
2022-10-19T14:11:54.224Z,15.02
2022-10-19T14:14:27.932Z,14.97
2022-10-19T14:17:04.210Z,14.90
2022-10-19T14:19:50.475Z,14.84
2022-10-19T14:22:33.824Z,14.80
2022-10-19T14:25:17.425Z,14.76
2022-10-19T14:27:58.305Z,14.74
2022-10-19T14:30:33.781Z,14.68
2022-10-19T14:33:07.948Z,14.63
2022-10-19T14:35:44.893Z,14.62
2022-10-19T14:38:43.417Z,14.61
2022-10-19T14:44:38.473Z,14.57
2022-10-19T14:47:30.274Z,14.59
2022-10-19T14:49:57.710Z,14.64
2022-10-19T14:52:38.440Z,14.74
2022-10-19T14:55:17.861Z,14.80
2022-10-19T14:57:50.738Z,14.85
2022-10-19T15:00:21.682Z,14.89
2022-10-19T15:03:09.551Z,14.98
2022-10-19T15:05:46.951Z,15.02
2022-10-19T15:08:37.231Z,15.01
2022-10-19T15:11:07.869Z,15.01
2022-10-19T15:13:47.356Z,15.04
2022-10-19T15:16:49.756Z,15.06
2022-10-19T15:19:30.753Z,15.03
2022-10-19T15:22:23.123Z,14.96
2022-10-19T15:25:07.691Z,14.85
2022-10-19T15:27:42.108Z,14.77
2022-10-19T15:30:18.595Z,14.73
2022-10-19T15:32:50.555Z,14.62
2022-10-19T15:35:31.949Z,14.55
2022-10-19T15:38:09.955Z,14.46
2022-10-19T15:40:43.773Z,14.39
2022-10-19T15:43:38.585Z,14.30
2022-10-19T15:46:28.219Z,14.18
2022-10-19T15:49:19.736Z,14.11
2022-10-19T15:51:48.599Z,14.03
2022-10-19T15:54:19.007Z,13.96
2022-10-19T15:56:51.958Z,13.87
2022-10-19T15:59:21.960Z,13.78
2022-10-19T16:01:53.691Z,13.70
2022-10-19T16:04:23.276Z,13.62
2022-10-19T16:06:50.753Z,13.56
2022-10-19T16:09:21.634Z,13.50
2022-10-19T16:11:50.086Z,13.39
2022-10-19T16:16:50.930Z,13.25
2022-10-19T16:19:18.346Z,13.17
2022-10-19T16:21:49.971Z,13.06
2022-10-19T16:24:17.745Z,12.96
2022-10-19T16:26:45.070Z,12.85
2022-10-19T16:29:12.408Z,12.77
2022-10-19T16:31:39.776Z,12.70
2022-10-19T16:34:07.153Z,12.65
2022-10-19T16:36:34.479Z,12.61
2022-10-19T16:39:02.620Z,12.59
2022-10-19T16:41:30.152Z,12.51
2022-10-19T16:43:57.668Z,12.46
2022-10-19T16:46:26.048Z,12.42
2022-10-19T16:48:53.943Z,12.38
2022-10-19T16:51:27.686Z,12.36
2022-10-19T16:53:57.717Z,12.31
2022-10-19T16:56:29.349Z,12.25
2022-10-19T16:59:04.116Z,12.19
2022-10-19T17:01:35.593Z,12.16
2022-10-19T17:04:03.158Z,12.07
2022-10-19T17:06:30.494Z,12.03
2022-10-19T17:11:46.396Z,11.98
2022-10-19T17:14:13.821Z,11.98
2022-10-19T17:16:41.587Z,11.94
2022-10-19T17:19:11.241Z,11.91
2022-10-19T17:21:39.422Z,11.88
2022-10-19T17:24:14.636Z,11.84
2022-10-19T17:26:47.689Z,11.81
2022-10-19T17:29:15.080Z,11.77
2022-10-19T17:31:45.206Z,11.76
2022-10-19T17:34:12.676Z,11.73
2022-10-19T17:36:46.776Z,11.73
2022-10-19T17:39:19.249Z,11.71
2022-10-19T17:41:50.471Z,11.68
2022-10-19T17:44:21.012Z,11.63
2022-10-19T17:46:49.338Z,11.60
2022-10-19T17:49:17.312Z,11.58
2022-10-19T17:51:44.799Z,11.57
2022-10-19T17:54:14.624Z,11.55
2022-10-19T17:56:45.048Z,11.50
2022-10-19T17:59:13.192Z,11.47
2022-10-19T18:01:40.833Z,11.43
2022-10-19T18:04:08.203Z,11.41
2022-10-19T18:06:37.801Z,11.37
2022-10-19T18:09:09.277Z,11.35
2022-10-19T18:11:44.922Z,11.33
2022-10-19T18:14:13.461Z,11.28
2022-10-19T18:16:45.459Z,11.25
2022-10-19T18:19:16.274Z,11.23
2022-10-19T18:21:47.051Z,11.20
2022-10-19T18:24:19.963Z,11.18
2022-10-19T18:26:50.202Z,11.17
2022-10-19T18:29:25.232Z,11.16
2022-10-19T18:31:53.696Z,11.13
2022-10-19T18:34:26.488Z,11.11
2022-10-19T18:36:54.254Z,11.06
2022-10-19T18:39:22.395Z,11.03
2022-10-19T18:41:54.102Z,11.02
2022-10-19T18:44:26.355Z,10.99
2022-10-19T18:46:57.227Z,10.97
2022-10-19T18:49:25.533Z,10.95
2022-10-19T18:51:56.402Z,10.93
2022-10-19T18:54:26.143Z,10.88
2022-10-19T18:56:54.119Z,10.85
2022-10-19T18:59:21.519Z,10.83
2022-10-19T19:01:48.923Z,10.82
2022-10-19T19:04:16.393Z,10.80
2022-10-19T19:06:43.777Z,10.76
2022-10-19T19:09:12.812Z,10.74
2022-10-19T19:11:41.313Z,10.72
2022-10-19T19:14:16.654Z,10.71
2022-10-19T19:16:45.507Z,10.67
2022-10-19T19:19:16.797Z,10.64
2022-10-19T19:21:45.160Z,10.60
2022-10-19T19:24:16.481Z,10.56
2022-10-19T19:26:49.978Z,10.55
2022-10-19T19:29:19.425Z,10.51
2022-10-19T19:31:48.112Z,10.52
2022-10-19T19:34:15.973Z,10.48
2022-10-19T19:36:48.240Z,10.44
2022-10-19T19:39:20.618Z,10.43
2022-10-19T19:41:50.060Z,10.37
2022-10-19T19:44:18.160Z,10.33
2022-10-19T19:46:46.209Z,10.32
2022-10-19T19:49:14.220Z,10.32
2022-10-19T19:51:41.729Z,10.31
2022-10-19T19:54:09.101Z,10.29
2022-10-19T19:56:37.333Z,10.27
2022-10-19T19:59:04.773Z,10.24
2022-10-19T20:01:32.598Z,10.23
2022-10-19T20:06:33.263Z,10.17
2022-10-19T20:09:00.725Z,10.12
2022-10-19T20:11:29.603Z,10.08
2022-10-19T20:13:57.024Z,10.05
2022-10-19T20:16:29.951Z,10.04
2022-10-19T20:19:08.199Z,10.02
2022-10-19T20:21:36.024Z,9.97
2022-10-19T20:24:03.952Z,9.95
2022-10-19T20:26:46.769Z,9.91
2022-10-19T20:29:14.231Z,9.89
2022-10-19T20:31:44.160Z,9.85
2022-10-19T20:34:13.831Z,9.82
2022-10-19T20:36:43.890Z,9.79
2022-10-19T20:39:11.274Z,9.76
2022-10-19T20:41:38.819Z,9.73
2022-10-19T20:44:06.207Z,9.71
2022-10-19T20:46:33.906Z,9.69
2022-10-19T20:49:01.706Z,9.66
2022-10-19T20:51:33.029Z,9.65
2022-10-19T20:54:03.326Z,9.61
2022-10-19T20:56:35.130Z,9.61
2022-10-19T20:59:16.566Z,9.61
2022-10-19T21:01:45.539Z,9.59
2022-10-19T21:04:15.154Z,9.59
2022-10-19T21:06:50.311Z,9.60
2022-10-19T21:09:22.133Z,9.58
2022-10-19T21:11:51.510Z,9.56
2022-10-19T21:14:28.077Z,9.55
2022-10-19T21:17:00.299Z,9.54
2022-10-19T21:19:29.246Z,9.46
2022-10-19T21:22:03.531Z,9.46
2022-10-19T21:24:35.953Z,9.48
2022-10-19T21:27:07.398Z,9.47
2022-10-19T21:29:39.482Z,9.44
2022-10-19T21:32:06.973Z,9.42
2022-10-19T21:34:34.848Z,9.41
2022-10-19T21:37:02.247Z,9.40
2022-10-19T21:39:29.613Z,9.40
2022-10-19T21:41:57.870Z,9.39
2022-10-19T21:44:25.237Z,9.37
2022-10-19T21:46:52.655Z,9.35
2022-10-19T21:49:20.131Z,9.33
2022-10-19T21:51:53.484Z,9.31
2022-10-19T21:54:29.047Z,9.30
2022-10-19T21:56:58.326Z,9.28
2022-10-19T21:59:25.880Z,9.25
2022-10-19T22:01:57.098Z,9.24
2022-10-19T22:04:24.566Z,9.22
2022-10-19T22:06:51.985Z,9.22
2022-10-19T22:09:21.988Z,9.21
2022-10-19T22:11:49.398Z,9.19
2022-10-19T22:14:17.372Z,9.17
2022-10-19T22:16:45.049Z,9.16
2022-10-19T22:19:13.389Z,9.14
2022-10-19T22:21:41.199Z,9.13
2022-10-19T22:24:14.024Z,9.10
2022-10-19T22:26:46.278Z,9.07
2022-10-19T22:29:13.778Z,9.06
2022-10-19T22:31:42.276Z,9.04
2022-10-19T22:34:15.014Z,9.02
2022-10-19T22:36:43.238Z,9.00
2022-10-19T22:39:11.008Z,8.96
2022-10-19T22:41:38.329Z,8.94
2022-10-19T22:44:06.108Z,8.92
2022-10-19T22:46:33.834Z,8.93
2022-10-19T22:49:01.323Z,8.94
2022-10-19T22:51:28.812Z,8.93
2022-10-19T22:53:56.216Z,8.92
2022-10-19T22:56:23.656Z,8.91
2022-10-19T22:58:51.041Z,8.91
2022-10-19T23:01:19.048Z,8.90
2022-10-19T23:03:46.466Z,8.91
2022-10-19T23:06:15.518Z,8.94
2022-10-19T23:08:44.686Z,8.96
2022-10-19T23:11:13.567Z,8.96
2022-10-19T23:13:41.387Z,8.97
2022-10-19T23:16:09.723Z,8.97
2022-10-19T23:18:40.366Z,8.96
2022-10-19T23:21:14.005Z,8.95
2022-10-19T23:23:42.560Z,8.94
2022-10-19T23:26:17.276Z,8.94
2022-10-19T23:28:48.690Z,8.93
2022-10-19T23:31:26.209Z,8.92
2022-10-19T23:33:54.030Z,8.91
2022-10-19T23:36:28.092Z,8.92
2022-10-19T23:38:57.750Z,8.91
2022-10-19T23:41:25.497Z,8.90
2022-10-19T23:43:52.828Z,8.84
2022-10-19T23:46:20.434Z,8.79
2022-10-19T23:48:47.769Z,8.76
2022-10-19T23:51:19.272Z,8.75
2022-10-19T23:53:50.557Z,8.72
2022-10-19T23:56:25.349Z,8.69
2022-10-19T23:58:53.709Z,8.68
